メリダ の空港の天気 - METARとTAF

マヌエル・クレセンシオ・レホン国際空港 ( MMMD / MID ) - メキシコ ユカタン州メリダ
飛行場実況気象(Metar)
観測時間11/11 21:44 CST (11/12 03:44 UTC)
風向・風速北東 3m/s
視程10km以上
天気現象
なし
気温25℃
湿度89%
気圧1014hPa
METARMMMD 120344Z 05006KT 7SM SKC 25/23 A2993
過去の天気等 Google飛行場航空写真 Wunderground天気予報

過去48時間のMETAR

飛行場予報(TAF)
発表時間: 11/11 17:32 CST (11/11 23:32 UTC)
予報対象時間: 11日18時 CST ~ 13日0時 CST
風向・風速北北西 4m/s
視程10km以上
全天の4割程度の雲 雲底高度 760m
11日20時 CST ~ 11日21時 CST に徐々に
風向・風速東 3m/s
12日11時 CST から
風向・風速北 5m/s
視程10km以上
全天の4割程度の雲 雲底高度 610m
12日15時 CST ~ 12日16時 CST に徐々に
風向・風速北 8m/s
全天の4割程度の雲 雲底高度 610m
全天の8割程度の雲 雲底高度 7620m
12日21時 CST から
風向・風速北 4m/s
視程10km以上
全天の4割程度の雲 雲底高度 610m
TAF MMMD 112332Z 1200/1306 34008KT P6SM SCT025 TX32/1219Z TN22/1210Z
BECMG 1202/1203 08006KT
FM121700 36010KT P6SM SCT020
BECMG 1221/1222 36015KT SCT020 BKN250
FM130300 35008KT P6SM SCT020